SWR39 KSFO-LSZH
Flight info
| Callsign | SWR39 |
|---|---|
| Flight time | N/A |
| Altitude | 33000 |
| Route | SNTNA2 DEDHD DCT LKV DCT MLP J540 YQL Q896 BORIX DCT 55N103W/N0494F350 59N095W 62N085W 65N070W/M084F350 DCT EPMAN DCT 66N050W/M084F370 66N040W 65N030W 63N020W DCT ATSIX/N0480F370 DCT AKIVO DCT NEXUS DCT TOPPA DCT SUTAL DCT GTQ DCT BAMEV DCT BLM |
| Aircraft | B77W/H-SDE1E2E3FGHIJ2J3J4J5M1RWXY/LB1D1 |
Departure
| Time | 2026-05-03 22:34 |
|---|---|
| Airport | San Francisco International Airport (KSFO) |
Arrival
| Time | N/A |
|---|---|
| Airport | Zürich Airport (LSZH) |
| Time | Latitude | Longitude | Altitude | Speed | Heading |
|---|---|---|---|---|---|
| 2026-05-03 21:55 | 37.61904 | -122.39253 | 38 ft | 0 kts | 208° |
| 2026-05-03 22:19 | 37.61916 | -122.39245 | 38 ft | 2 kts | 208° |
| 2026-05-03 22:19 | 37.61929 | -122.39236 | 38 ft | 2 kts | 214° |
| 2026-05-03 22:19 | 37.61940 | -122.39223 | 38 ft | 2 kts | 237° |
| 2026-05-03 22:19 | 37.61947 | -122.39207 | 38 ft | 2 kts | 255° |
| 2026-05-03 22:20 | 37.61949 | -122.39188 | 38 ft | 2 kts | 273° |
| 2026-05-03 22:20 | 37.61946 | -122.39169 | 38 ft | 2 kts | 292° |
| 2026-05-03 22:20 | 37.61943 | -122.39161 | 38 ft | 1 kts | 299° |
| 2026-05-03 22:20 | 37.61942 | -122.39159 | 38 ft | 0 kts | 298° |
| 2026-05-03 22:22 | 37.61946 | -122.39168 | 38 ft | 3 kts | 298° |
| 2026-05-03 22:22 | 37.61966 | -122.39214 | 38 ft | 6 kts | 303° |
| 2026-05-03 22:22 | 37.62001 | -122.39239 | 38 ft | 5 kts | 357° |
| 2026-05-03 22:23 | 37.62042 | -122.39226 | 38 ft | 8 kts | 28° |
| 2026-05-03 22:23 | 37.62106 | -122.39185 | 38 ft | 12 kts | 27° |
| 2026-05-03 22:23 | 37.62185 | -122.39132 | 37 ft | 12 kts | 28° |
| 2026-05-03 22:23 | 37.62237 | -122.39054 | 36 ft | 11 kts | 70° |
| 2026-05-03 22:24 | 37.62256 | -122.38978 | 36 ft | 7 kts | 74° |
| 2026-05-03 22:24 | 37.62259 | -122.38914 | 36 ft | 7 kts | 106° |
| 2026-05-03 22:24 | 37.62227 | -122.38824 | 37 ft | 14 kts | 117° |
| 2026-05-03 22:24 | 37.62171 | -122.38693 | 38 ft | 20 kts | 119° |
| 2026-05-03 22:25 | 37.62096 | -122.38515 | 38 ft | 25 kts | 118° |
| 2026-05-03 22:25 | 37.62004 | -122.38295 | 38 ft | 29 kts | 118° |
| 2026-05-03 22:25 | 37.61914 | -122.38081 | 38 ft | 26 kts | 118° |
| 2026-05-03 22:25 | 37.61834 | -122.37884 | 35 ft | 24 kts | 116° |
| 2026-05-03 22:26 | 37.61771 | -122.37686 | 32 ft | 23 kts | 112° |
| 2026-05-03 22:26 | 37.61708 | -122.37492 | 25 ft | 24 kts | 116° |
| 2026-05-03 22:26 | 37.61633 | -122.37306 | 21 ft | 23 kts | 119° |
| 2026-05-03 22:26 | 37.61559 | -122.37131 | 18 ft | 22 kts | 117° |
| 2026-05-03 22:27 | 37.61486 | -122.36962 | 18 ft | 22 kts | 122° |
| 2026-05-03 22:27 | 37.61391 | -122.36820 | 18 ft | 19 kts | 131° |
| 2026-05-03 22:27 | 37.61324 | -122.36681 | 18 ft | 18 kts | 120° |
| 2026-05-03 22:27 | 37.61257 | -122.36523 | 17 ft | 22 kts | 116° |
| 2026-05-03 22:28 | 37.61182 | -122.36340 | 15 ft | 23 kts | 117° |
| 2026-05-03 22:28 | 37.61109 | -122.36171 | 15 ft | 20 kts | 118° |
| 2026-05-03 22:28 | 37.61053 | -122.36031 | 15 ft | 13 kts | 105° |
| 2026-05-03 22:28 | 37.61074 | -122.35933 | 15 ft | 10 kts | 45° |
| 2026-05-03 22:29 | 37.61082 | -122.35924 | 15 ft | 0 kts | 36° |
| 2026-05-03 22:30 | 37.61093 | -122.35914 | 15 ft | 4 kts | 37° |
| 2026-05-03 22:30 | 37.61128 | -122.35887 | 15 ft | 5 kts | 30° |
| 2026-05-03 22:31 | 37.61158 | -122.35865 | 15 ft | 4 kts | 30° |
| 2026-05-03 22:31 | 37.61179 | -122.35863 | 15 ft | 1 kts | 339° |
| 2026-05-03 22:31 | 37.61183 | -122.35866 | 15 ft | 0 kts | 326° |
| 2026-05-03 22:31 | 37.61191 | -122.35878 | 15 ft | 0 kts | 297° |
| 2026-05-03 22:33 | 37.61191 | -122.35879 | 15 ft | 0 kts | 297° |
| 2026-05-03 22:33 | 37.61252 | -122.36027 | 15 ft | 50 kts | 297° |
| 2026-05-03 22:34 | 37.61527 | -122.36681 | 19 ft | 116 kts | 298° |
| 2026-05-03 22:34 | 37.62006 | -122.37820 | 39 ft | 171 kts | 297° |
| 2026-05-03 22:34 | 37.62598 | -122.39183 | 564 ft | 181 kts | 296° |
| 2026-05-03 22:34 | 37.63189 | -122.40544 | 1419 ft | 180 kts | 296° |
| 2026-05-03 22:35 | 37.63787 | -122.41908 | 2063 ft | 181 kts | 297° |
| 2026-05-03 22:35 | 37.64417 | -122.43356 | 2442 ft | 194 kts | 297° |
| 2026-05-03 22:35 | 37.65078 | -122.44892 | 2879 ft | 204 kts | 297° |
| 2026-05-03 22:35 | 37.65747 | -122.46458 | 3403 ft | 210 kts | 297° |
| 2026-05-03 22:36 | 37.66460 | -122.48133 | 3724 ft | 227 kts | 297° |
| 2026-05-03 22:36 | 37.67245 | -122.49965 | 4061 ft | 246 kts | 301° |
| 2026-05-03 22:36 | 37.68433 | -122.51594 | 4416 ft | 265 kts | 327° |
| 2026-05-03 22:36 | 37.70177 | -122.52446 | 4936 ft | 276 kts | 354° |
| 2026-05-03 22:37 | 37.72109 | -122.52583 | 5712 ft | 279 kts | 0° |
| 2026-05-03 22:37 | 37.74066 | -122.52623 | 6499 ft | 282 kts | 1° |
| 2026-05-03 22:37 | 37.76025 | -122.52679 | 7233 ft | 286 kts | 0° |
| 2026-05-03 22:37 | 37.78022 | -122.52669 | 7946 ft | 288 kts | 12° |
| 2026-05-03 22:38 | 37.79881 | -122.51824 | 8558 ft | 288 kts | 38° |
| 2026-05-03 22:38 | 37.81271 | -122.50056 | 9197 ft | 286 kts | 62° |
| 2026-05-03 22:38 | 37.82196 | -122.47868 | 10000 ft | 283 kts | 68° |
| 2026-05-03 22:38 | 37.83133 | -122.45660 | 10533 ft | 295 kts | 59° |
| 2026-05-03 22:39 | 37.84492 | -122.43573 | 10894 ft | 315 kts | 47° |
| 2026-05-03 22:39 | 37.86264 | -122.41837 | 11254 ft | 335 kts | 33° |
| 2026-05-03 22:39 | 37.88356 | -122.40431 | 11672 ft | 351 kts | 30° |
| 2026-05-03 22:39 | 37.90589 | -122.39015 | 12115 ft | 366 kts | 30° |
| 2026-05-03 22:40 | 37.92927 | -122.37525 | 12594 ft | 379 kts | 30° |
| 2026-05-03 22:40 | 37.95307 | -122.36001 | 13181 ft | 389 kts | 30° |
| 2026-05-03 22:40 | 37.97742 | -122.34439 | 13946 ft | 394 kts | 30° |
| 2026-05-03 22:40 | 38.00158 | -122.32886 | 14713 ft | 398 kts | 30° |
| 2026-05-03 22:41 | 38.02647 | -122.31285 | 15486 ft | 402 kts | 30° |
| 2026-05-03 22:41 | 38.05129 | -122.29685 | 16257 ft | 405 kts | 30° |
| 2026-05-03 22:41 | 38.07656 | -122.28056 | 16999 ft | 409 kts | 31° |
| 2026-05-03 22:41 | 38.10213 | -122.26405 | 17758 ft | 412 kts | 31° |
| 2026-05-03 22:42 | 38.12774 | -122.24750 | 18468 ft | 416 kts | 31° |
| 2026-05-03 22:42 | 38.15355 | -122.23080 | 19168 ft | 419 kts | 31° |
| 2026-05-03 22:42 | 38.17950 | -122.21401 | 19879 ft | 422 kts | 31° |
| 2026-05-03 22:42 | 38.20563 | -122.19708 | 20629 ft | 423 kts | 31° |
| 2026-05-03 22:43 | 38.23198 | -122.18000 | 21350 ft | 425 kts | 32° |
| 2026-05-03 22:43 | 38.25832 | -122.16291 | 22039 ft | 427 kts | 32° |
| 2026-05-03 22:43 | 38.28451 | -122.14590 | 22754 ft | 428 kts | 32° |
| 2026-05-03 22:43 | 38.31114 | -122.12859 | 23387 ft | 430 kts | 32° |
| 2026-05-03 22:44 | 38.33829 | -122.11258 | 23965 ft | 437 kts | 25° |
| 2026-05-03 22:44 | 38.36754 | -122.10081 | 24570 ft | 442 kts | 21° |
| 2026-05-03 22:44 | 38.39719 | -122.09008 | 25169 ft | 445 kts | 21° |
| 2026-05-03 22:44 | 38.42683 | -122.07939 | 25775 ft | 446 kts | 21° |
| 2026-05-03 22:45 | 38.45665 | -122.06860 | 26329 ft | 449 kts | 21° |
| 2026-05-03 22:45 | 38.48667 | -122.05772 | 26836 ft | 452 kts | 21° |
| 2026-05-03 22:45 | 38.51737 | -122.04656 | 27325 ft | 455 kts | 21° |
| 2026-05-03 22:45 | 38.54790 | -122.03545 | 27836 ft | 458 kts | 21° |
| 2026-05-03 22:46 | 38.57811 | -122.02445 | 28375 ft | 460 kts | 21° |
| 2026-05-03 22:46 | 38.60920 | -122.01311 | 28954 ft | 460 kts | 21° |
| 2026-05-03 22:46 | 38.64005 | -122.00185 | 29508 ft | 461 kts | 21° |
| 2026-05-03 22:46 | 38.67048 | -121.99073 | 30148 ft | 460 kts | 21° |
| 2026-05-03 22:47 | 38.70106 | -121.97955 | 30829 ft | 456 kts | 21° |
| 2026-05-03 22:47 | 38.73175 | -121.96832 | 31365 ft | 456 kts | 21° |
| 2026-05-03 22:47 | 38.76236 | -121.95708 | 31666 ft | 459 kts | 21° |
| 2026-05-03 22:47 | 38.79339 | -121.94568 | 31973 ft | 463 kts | 21° |
| 2026-05-03 22:48 | 38.82431 | -121.93432 | 32417 ft | 463 kts | 21° |
| 2026-05-03 22:48 | 38.85566 | -121.92279 | 32839 ft | 464 kts | 21° |
| 2026-05-03 22:48 | 38.88716 | -121.91119 | 32882 ft | 463 kts | 21° |
| 2026-05-03 22:49 | 38.94899 | -121.88843 | 32875 ft | 457 kts | 21° |
| 2026-05-03 22:49 | 39.01040 | -121.86575 | 32871 ft | 458 kts | 21° |
| 2026-05-03 22:50 | 39.07133 | -121.84320 | 32877 ft | 457 kts | 21° |
| 2026-05-03 22:50 | 39.13266 | -121.82046 | 32886 ft | 459 kts | 21° |
| 2026-05-03 22:51 | 39.19375 | -121.79778 | 32881 ft | 460 kts | 21° |
| 2026-05-03 22:51 | 39.25536 | -121.77486 | 32891 ft | 461 kts | 21° |
| 2026-05-03 22:52 | 39.31699 | -121.75190 | 32900 ft | 460 kts | 21° |
| 2026-05-03 22:52 | 39.37825 | -121.72903 | 32903 ft | 460 kts | 21° |
| 2026-05-03 22:53 | 39.43964 | -121.70607 | 32917 ft | 460 kts | 21° |
| 2026-05-03 22:53 | 39.50164 | -121.68283 | 32920 ft | 462 kts | 21° |
| 2026-05-03 22:54 | 39.56327 | -121.65969 | 32916 ft | 463 kts | 21° |
| 2026-05-03 22:54 | 39.62529 | -121.63637 | 32929 ft | 464 kts | 21° |
| 2026-05-03 22:55 | 39.68702 | -121.61311 | 32921 ft | 463 kts | 21° |
| 2026-05-03 22:55 | 39.74948 | -121.58952 | 32930 ft | 465 kts | 21° |
| 2026-05-03 22:56 | 39.81139 | -121.56610 | 32933 ft | 467 kts | 20° |
| 2026-05-03 22:56 | 39.87400 | -121.54239 | 32962 ft | 466 kts | 21° |
| 2026-05-03 22:57 | 39.93632 | -121.51873 | 32968 ft | 467 kts | 20° |
| 2026-05-03 22:57 | 39.99862 | -121.49502 | 32982 ft | 468 kts | 20° |
| 2026-05-03 22:58 | 40.06122 | -121.47117 | 32986 ft | 468 kts | 20° |
| 2026-05-03 22:58 | 40.12370 | -121.44731 | 32980 ft | 467 kts | 20° |
| 2026-05-03 22:59 | 40.18646 | -121.42329 | 32986 ft | 470 kts | 20° |
| 2026-05-03 22:59 | 40.24917 | -121.39927 | 32984 ft | 467 kts | 20° |
| 2026-05-03 23:00 | 40.31166 | -121.37527 | 32994 ft | 469 kts | 20° |
| 2026-05-03 23:00 | 40.37392 | -121.35130 | 33001 ft | 469 kts | 20° |
| 2026-05-03 23:01 | 40.43693 | -121.32701 | 33020 ft | 468 kts | 20° |
| 2026-05-03 23:01 | 40.49932 | -121.30291 | 33036 ft | 469 kts | 20° |
| 2026-05-03 23:02 | 40.56250 | -121.27845 | 33035 ft | 469 kts | 20° |
| 2026-05-03 23:02 | 40.62496 | -121.25423 | 33033 ft | 469 kts | 20° |
| 2026-05-03 23:03 | 40.68720 | -121.23003 | 33025 ft | 468 kts | 20° |
| 2026-05-03 23:03 | 40.74989 | -121.20563 | 33020 ft | 469 kts | 20° |
| 2026-05-03 23:04 | 40.81266 | -121.18114 | 33020 ft | 470 kts | 20° |
| 2026-05-03 23:04 | 40.87497 | -121.15679 | 33016 ft | 468 kts | 20° |
| 2026-05-03 23:05 | 40.93751 | -121.13229 | 33016 ft | 471 kts | 20° |
| 2026-05-03 23:05 | 41.00015 | -121.10771 | 33010 ft | 469 kts | 20° |
| 2026-05-03 23:06 | 41.06258 | -121.08316 | 33026 ft | 470 kts | 20° |
| 2026-05-03 23:06 | 41.12512 | -121.05853 | 33026 ft | 469 kts | 20° |
| 2026-05-03 23:07 | 41.18776 | -121.03380 | 33040 ft | 468 kts | 20° |
| 2026-05-03 23:07 | 41.25052 | -121.00898 | 33037 ft | 469 kts | 20° |
| 2026-05-03 23:08 | 41.31311 | -120.98417 | 33041 ft | 467 kts | 20° |
| 2026-05-03 23:08 | 41.37542 | -120.95942 | 33043 ft | 469 kts | 20° |
| 2026-05-03 23:09 | 41.43763 | -120.93466 | 33037 ft | 469 kts | 20° |
| 2026-05-03 23:09 | 41.50002 | -120.90979 | 33031 ft | 469 kts | 19° |
| 2026-05-03 23:10 | 41.56250 | -120.88483 | 33032 ft | 468 kts | 19° |
| 2026-05-03 23:10 | 41.62509 | -120.85977 | 33027 ft | 469 kts | 19° |
| 2026-05-03 23:11 | 41.68719 | -120.83485 | 33030 ft | 469 kts | 19° |
| 2026-05-03 23:11 | 41.74998 | -120.80962 | 33026 ft | 468 kts | 19° |
| 2026-05-03 23:12 | 41.81198 | -120.78464 | 33034 ft | 469 kts | 19° |
| 2026-05-03 23:12 | 41.87484 | -120.75928 | 33039 ft | 468 kts | 19° |
| 2026-05-03 23:13 | 41.93792 | -120.73377 | 33041 ft | 470 kts | 19° |
| 2026-05-03 23:13 | 42.00003 | -120.70860 | 33042 ft | 468 kts | 19° |
| 2026-05-03 23:14 | 42.06224 | -120.68333 | 33044 ft | 468 kts | 19° |
| 2026-05-03 23:14 | 42.12458 | -120.65797 | 33038 ft | 467 kts | 19° |
| 2026-05-03 23:15 | 42.18721 | -120.63242 | 33049 ft | 469 kts | 18° |
| 2026-05-03 23:15 | 42.24974 | -120.60688 | 33048 ft | 466 kts | 18° |
| 2026-05-03 23:16 | 42.31174 | -120.58149 | 33060 ft | 469 kts | 18° |
| 2026-05-03 23:16 | 42.37405 | -120.55593 | 33057 ft | 467 kts | 18° |
| 2026-05-03 23:17 | 42.43643 | -120.53027 | 33077 ft | 467 kts | 18° |
| 2026-05-03 23:17 | 42.49706 | -120.50031 | 33076 ft | 466 kts | 29° |
| 2026-05-03 23:18 | 42.55228 | -120.45405 | 33072 ft | 465 kts | 33° |
| 2026-05-03 23:18 | 42.60689 | -120.40601 | 33067 ft | 465 kts | 33° |
| 2026-05-03 23:19 | 42.66112 | -120.35809 | 33048 ft | 466 kts | 33° |
| 2026-05-03 23:19 | 42.71528 | -120.31007 | 33045 ft | 464 kts | 34° |
| 2026-05-03 23:20 | 42.76973 | -120.26165 | 33036 ft | 465 kts | 34° |
| 2026-05-03 23:20 | 42.82379 | -120.21345 | 33038 ft | 467 kts | 34° |
| 2026-05-03 23:21 | 42.87809 | -120.16495 | 33036 ft | 467 kts | 34° |
| 2026-05-03 23:21 | 42.93244 | -120.11628 | 33038 ft | 467 kts | 34° |
| 2026-05-03 23:22 | 43.01404 | -120.04301 | 33027 ft | 467 kts | 34° |
| 2026-05-03 23:22 | 43.06822 | -119.99423 | 33024 ft | 467 kts | 34° |
| 2026-05-03 23:23 | 43.12269 | -119.94507 | 33024 ft | 466 kts | 34° |
| 2026-05-03 23:23 | 43.17685 | -119.89610 | 33032 ft | 467 kts | 34° |
| 2026-05-03 23:24 | 43.23090 | -119.84711 | 33037 ft | 465 kts | 33° |
| 2026-05-03 23:24 | 43.28473 | -119.79822 | 33034 ft | 467 kts | 33° |
| 2026-05-03 23:25 | 43.33896 | -119.74886 | 33036 ft | 466 kts | 33° |
| 2026-05-03 23:25 | 43.39305 | -119.69952 | 33040 ft | 465 kts | 33° |
| 2026-05-03 23:26 | 43.44682 | -119.65036 | 33042 ft | 466 kts | 33° |
| 2026-05-03 23:26 | 43.50068 | -119.60102 | 33046 ft | 465 kts | 33° |
| 2026-05-03 23:27 | 43.55450 | -119.55161 | 33040 ft | 465 kts | 33° |
| 2026-05-03 23:27 | 43.60823 | -119.50217 | 33042 ft | 466 kts | 33° |
| 2026-05-03 23:28 | 43.66222 | -119.45239 | 33049 ft | 464 kts | 33° |
| 2026-05-03 23:28 | 43.71612 | -119.40256 | 33052 ft | 465 kts | 33° |
| 2026-05-03 23:29 | 43.76973 | -119.35291 | 33068 ft | 465 kts | 33° |
| 2026-05-03 23:29 | 43.82379 | -119.30273 | 33075 ft | 466 kts | 34° |
| 2026-05-03 23:30 | 43.87764 | -119.25264 | 33079 ft | 464 kts | 33° |
| 2026-05-03 23:30 | 43.93108 | -119.20280 | 33082 ft | 465 kts | 33° |
| 2026-05-03 23:31 | 43.98477 | -119.15264 | 33082 ft | 465 kts | 33° |
| 2026-05-03 23:31 | 44.03836 | -119.10245 | 33076 ft | 467 kts | 33° |
| 2026-05-03 23:32 | 44.09207 | -119.05204 | 33073 ft | 465 kts | 33° |
| 2026-05-03 23:32 | 44.14556 | -119.00172 | 33078 ft | 464 kts | 33° |
| 2026-05-03 23:33 | 44.19868 | -118.95164 | 33081 ft | 464 kts | 33° |
| 2026-05-03 23:33 | 44.25210 | -118.90117 | 33083 ft | 460 kts | 33° |
| 2026-05-03 23:34 | 44.30515 | -118.85093 | 33086 ft | 465 kts | 33° |
| 2026-05-03 23:34 | 44.33201 | -118.82546 | 33386 ft | 467 kts | 33° |
| 2026-05-03 23:34 | 44.35854 | -118.80026 | 34082 ft | 460 kts | 33° |
| 2026-05-03 23:35 | 44.38478 | -118.77531 | 34793 ft | 453 kts | 34° |
| 2026-05-03 23:35 | 44.41095 | -118.75041 | 35043 ft | 454 kts | 34° |
| 2026-05-03 23:35 | 44.46305 | -118.70074 | 35065 ft | 451 kts | 34° |
| 2026-05-03 23:36 | 44.51489 | -118.65121 | 35065 ft | 451 kts | 34° |
| 2026-05-03 23:36 | 44.56665 | -118.60166 | 35068 ft | 450 kts | 34° |
| 2026-05-03 23:37 | 44.61781 | -118.55257 | 35062 ft | 448 kts | 34° |
| 2026-05-03 23:37 | 44.66936 | -118.50300 | 35065 ft | 450 kts | 34° |
| 2026-05-03 23:38 | 44.72099 | -118.45324 | 35062 ft | 448 kts | 34° |
| 2026-05-03 23:38 | 44.77275 | -118.40324 | 35058 ft | 449 kts | 34° |
| 2026-05-03 23:39 | 44.82387 | -118.35376 | 35058 ft | 448 kts | 34° |
| 2026-05-03 23:39 | 44.87518 | -118.30397 | 35066 ft | 445 kts | 35° |
| 2026-05-03 23:40 | 44.92601 | -118.25455 | 35069 ft | 448 kts | 34° |
| 2026-05-03 23:40 | 44.97740 | -118.20446 | 35065 ft | 446 kts | 34° |
| 2026-05-03 23:41 | 45.02835 | -118.15469 | 35059 ft | 447 kts | 34° |
| 2026-05-03 23:41 | 45.07928 | -118.10485 | 35046 ft | 445 kts | 35° |
| 2026-05-03 23:42 | 45.13037 | -118.05475 | 35023 ft | 446 kts | 34° |
| 2026-05-03 23:42 | 45.18123 | -118.00474 | 35002 ft | 446 kts | 34° |
| 2026-05-03 23:43 | 45.23232 | -117.95441 | 35001 ft | 447 kts | 34° |
| 2026-05-03 23:43 | 45.28326 | -117.90411 | 35003 ft | 446 kts | 34° |
| 2026-05-03 23:44 | 45.33418 | -117.85371 | 35017 ft | 447 kts | 34° |
| 2026-05-03 23:44 | 45.38525 | -117.80306 | 35029 ft | 446 kts | 34° |
| 2026-05-03 23:45 | 45.43602 | -117.75259 | 35041 ft | 445 kts | 34° |
| 2026-05-03 23:45 | 45.48711 | -117.70169 | 35052 ft | 448 kts | 34° |
| 2026-05-03 23:46 | 45.53784 | -117.65102 | 35049 ft | 445 kts | 34° |
| 2026-05-03 23:46 | 45.58881 | -117.60001 | 35043 ft | 448 kts | 34° |
| 2026-05-03 23:47 | 45.63954 | -117.54911 | 35037 ft | 447 kts | 34° |
| 2026-05-03 23:47 | 45.69056 | -117.49783 | 35035 ft | 449 kts | 34° |
| 2026-05-03 23:48 | 45.74162 | -117.44637 | 35029 ft | 447 kts | 34° |
| 2026-05-03 23:48 | 45.79253 | -117.39496 | 35026 ft | 449 kts | 34° |
| 2026-05-03 23:49 | 45.84341 | -117.34345 | 35020 ft | 448 kts | 35° |
| 2026-05-03 23:49 | 45.89456 | -117.29155 | 35007 ft | 449 kts | 35° |
| 2026-05-03 23:50 | 45.93672 | -117.24868 | 35005 ft | 450 kts | 35° |
| 2026-05-03 23:50 | 45.99638 | -117.18787 | 34999 ft | 449 kts | 35° |
| 2026-05-03 23:51 | 46.04740 | -117.13576 | 34990 ft | 451 kts | 35° |
| 2026-05-03 23:51 | 46.09819 | -117.08374 | 34969 ft | 448 kts | 34° |
| 2026-05-03 23:52 | 46.14950 | -117.03108 | 34968 ft | 450 kts | 34° |
| 2026-05-03 23:52 | 46.20039 | -116.97874 | 34957 ft | 449 kts | 34° |
| 2026-05-03 23:53 | 46.25124 | -116.92629 | 34956 ft | 448 kts | 34° |
| 2026-05-03 23:53 | 46.30207 | -116.87376 | 34959 ft | 449 kts | 35° |
| 2026-05-03 23:54 | 46.35268 | -116.82133 | 34962 ft | 447 kts | 35° |
| 2026-05-03 23:54 | 46.40322 | -116.76884 | 34958 ft | 448 kts | 35° |
| 2026-05-03 23:55 | 46.45375 | -116.71626 | 34949 ft | 446 kts | 34° |
| 2026-05-03 23:55 | 46.50378 | -116.66406 | 34934 ft | 445 kts | 34° |
| 2026-05-03 23:56 | 46.55400 | -116.61156 | 34933 ft | 446 kts | 35° |
| 2026-05-03 23:56 | 46.60453 | -116.55859 | 34934 ft | 446 kts | 35° |
| 2026-05-03 23:57 | 46.65472 | -116.50587 | 34942 ft | 445 kts | 35° |
| 2026-05-03 23:57 | 46.70448 | -116.45347 | 34957 ft | 444 kts | 35° |
| 2026-05-03 23:58 | 46.75461 | -116.40056 | 34977 ft | 444 kts | 35° |
| 2026-05-03 23:58 | 46.80443 | -116.34785 | 34989 ft | 443 kts | 35° |
| 2026-05-03 23:59 | 46.85440 | -116.29486 | 34999 ft | 444 kts | 35° |
| 2026-05-03 23:59 | 46.90399 | -116.24216 | 34999 ft | 443 kts | 36° |
| 2026-05-04 00:00 | 46.95385 | -116.18903 | 35007 ft | 444 kts | 36° |
| 2026-05-04 00:00 | 47.00360 | -116.13590 | 35015 ft | 443 kts | 35° |
| 2026-05-04 00:01 | 47.05341 | -116.08258 | 35020 ft | 441 kts | 35° |
| 2026-05-04 00:01 | 47.10283 | -116.02956 | 35017 ft | 442 kts | 35° |
| 2026-05-04 00:02 | 47.15221 | -115.97645 | 35022 ft | 443 kts | 35° |
| 2026-05-04 00:02 | 47.20206 | -115.92271 | 35015 ft | 444 kts | 35° |
| 2026-05-04 00:03 | 47.25174 | -115.86903 | 35015 ft | 445 kts | 35° |
| 2026-05-04 00:03 | 47.30150 | -115.81513 | 35019 ft | 445 kts | 35° |